createdAt,value
2022-09-16T00:00:51.697Z,4.17
2022-09-16T00:03:19.570Z,4.90
2022-09-16T00:05:49.956Z,4.67
2022-09-16T00:08:17.717Z,1.97
2022-09-16T00:10:45.350Z,8.07
2022-09-16T00:13:13.157Z,4.30
2022-09-16T00:15:49.219Z,5.73
2022-09-16T00:18:16.396Z,3.90
2022-09-16T00:20:45.837Z,3.53
2022-09-16T00:23:13.083Z,3.73
2022-09-16T00:25:40.385Z,7.17
2022-09-16T00:28:07.891Z,3.63
2022-09-16T00:30:35.228Z,4.67
2022-09-16T00:33:02.385Z,1.60
2022-09-16T00:35:29.572Z,5.80
2022-09-16T00:37:56.645Z,5.97
2022-09-16T00:40:23.976Z,2.97
2022-09-16T00:42:51.191Z,5.20
2022-09-16T00:45:24.268Z,2.90
2022-09-16T00:47:55.710Z,4.63
2022-09-16T00:50:38.651Z,3.53
2022-09-16T00:53:10.047Z,2.73
2022-09-16T00:55:38.576Z,4.57
2022-09-16T00:58:14.122Z,2.73
2022-09-16T01:00:41.878Z,5.63
2022-09-16T01:03:09.159Z,2.17
2022-09-16T01:05:37.745Z,6.43
2022-09-16T01:08:05.149Z,3.63
2022-09-16T01:10:32.526Z,3.70
2022-09-16T01:13:03.974Z,7.70
2022-09-16T01:15:39.722Z,3.50
2022-09-16T01:18:21.642Z,5.90
2022-09-16T01:21:00.062Z,3.80
2022-09-16T01:24:04.265Z,4.93
2022-09-16T01:26:47.390Z,7.50
2022-09-16T01:29:38.784Z,3.83
2022-09-16T01:32:22.493Z,5.03
2022-09-16T01:35:11.352Z,3.20
2022-09-16T01:38:09.611Z,8.57
2022-09-16T01:40:48.884Z,2.70
2022-09-16T01:43:31.541Z,8.77
2022-09-16T01:46:04.754Z,5.20
2022-09-16T01:49:06.545Z,4.83
2022-09-16T01:52:02.682Z,2.47
2022-09-16T01:54:51.323Z,12.20
2022-09-16T01:57:34.707Z,4.33
2022-09-16T02:00:08.778Z,4.50
2022-09-16T02:03:11.178Z,2.47
2022-09-16T02:05:50.972Z,4.37
2022-09-16T02:08:28.093Z,2.57
2022-09-16T02:10:59.723Z,6.40
2022-09-16T02:13:59.098Z,2.17
2022-09-16T02:16:35.587Z,5.03
2022-09-16T02:19:09.442Z,4.33
2022-09-16T02:21:44.874Z,1.90
2022-09-16T02:24:17.041Z,5.20
2022-09-16T02:26:50.172Z,5.40
2022-09-16T02:29:24.858Z,3.73
2022-09-16T02:31:56.058Z,2.17
2022-09-16T02:34:45.352Z,3.10
2022-09-16T02:37:18.221Z,2.93
2022-09-16T02:39:49.997Z,2.47
2022-09-16T02:42:17.653Z,1.77
2022-09-16T02:44:47.962Z,3.93
2022-09-16T02:47:33.064Z,5.20
2022-09-16T02:51:04.905Z,5.10
2022-09-16T02:53:53.418Z,6.17
2022-09-16T02:56:27.295Z,5.17
2022-09-16T02:59:02.433Z,6.40
2022-09-16T03:01:34.024Z,2.90
2022-09-16T03:04:01.693Z,3.37
2022-09-16T03:06:29.852Z,3.60
2022-09-16T03:09:00.439Z,2.43
2022-09-16T03:12:17.888Z,4.90
2022-09-16T03:15:02.426Z,3.30
2022-09-16T03:17:48.334Z,4.03
2022-09-16T03:20:45.331Z,2.27
2022-09-16T03:23:35.521Z,4.20
2022-09-16T03:26:17.577Z,3.83
2022-09-16T03:29:19.612Z,5.63
2022-09-16T03:32:03.355Z,3.10
2022-09-16T03:34:32.620Z,3.43
2022-09-16T03:37:05.191Z,2.87
2022-09-16T03:39:33.845Z,3.57
2022-09-16T03:42:08.219Z,5.43
2022-09-16T03:44:39.264Z,6.13
2022-09-16T03:47:10.670Z,7.17
2022-09-16T03:49:38.264Z,4.00
2022-09-16T03:52:08.760Z,5.77
2022-09-16T03:54:38.988Z,7.43
2022-09-16T03:57:06.810Z,3.73
2022-09-16T03:59:34.268Z,4.47
2022-09-16T04:02:01.555Z,5.97
2022-09-16T04:04:28.738Z,4.30
2022-09-16T04:06:55.952Z,7.93
2022-09-16T04:09:23.063Z,2.67
2022-09-16T04:11:50.259Z,2.83
2022-09-16T04:14:17.486Z,5.40
2022-09-16T04:16:45.469Z,4.23
2022-09-16T04:19:13.704Z,5.03
2022-09-16T04:21:42.129Z,5.70
2022-09-16T04:24:12.970Z,8.10
2022-09-16T04:26:41.127Z,2.73
2022-09-16T04:29:08.369Z,7.57
2022-09-16T04:31:35.682Z,2.57
2022-09-16T04:34:03.897Z,4.13
2022-09-16T04:36:31.316Z,7.00
2022-09-16T04:38:58.474Z,8.70
2022-09-16T04:41:27.022Z,7.23
2022-09-16T04:43:56.970Z,4.23
2022-09-16T04:46:29.480Z,2.43
2022-09-16T04:48:57.317Z,4.43
2022-09-16T04:51:28.362Z,4.00
2022-09-16T04:53:56.777Z,5.47
2022-09-16T04:56:26.910Z,4.47
2022-09-16T04:59:00.644Z,2.30
2022-09-16T05:01:30.339Z,1.87
2022-09-16T05:04:02.275Z,2.43
2022-09-16T05:06:35.093Z,3.00
2022-09-16T05:09:03.477Z,3.93
2022-09-16T05:11:36.862Z,5.73
2022-09-16T05:14:06.946Z,4.73
2022-09-16T05:16:34.577Z,4.30
2022-09-16T05:19:05.008Z,6.57
2022-09-16T05:21:35.242Z,3.13
2022-09-16T05:24:04.729Z,1.70
2022-09-16T05:26:32.934Z,6.30
2022-09-16T05:29:05.110Z,3.47
2022-09-16T05:31:35.147Z,3.87
2022-09-16T05:34:17.502Z,1.50
2022-09-16T05:36:47.596Z,3.70
2022-09-16T05:39:25.933Z,1.90
2022-09-16T05:41:59.164Z,5.63
2022-09-16T05:44:27.832Z,3.30
2022-09-16T05:46:55.381Z,3.13
2022-09-16T05:49:23.914Z,4.30
2022-09-16T05:51:52.044Z,2.47
2022-09-16T05:54:19.766Z,2.67
2022-09-16T05:56:48.047Z,4.37
2022-09-16T05:59:16.462Z,7.50
2022-09-16T06:01:46.947Z,2.53
2022-09-16T06:04:15.584Z,3.17
2022-09-16T06:06:47.153Z,5.63
2022-09-16T06:09:23.761Z,6.87
2022-09-16T06:12:00.801Z,2.63
2022-09-16T06:14:28.835Z,2.43
2022-09-16T06:16:56.097Z,4.40
2022-09-16T06:19:23.538Z,3.97
2022-09-16T06:21:50.752Z,3.77
2022-09-16T06:24:19.468Z,4.90
2022-09-16T06:26:47.801Z,7.30
2022-09-16T06:29:15.962Z,2.57
2022-09-16T06:31:43.418Z,2.80
2022-09-16T06:34:18.701Z,3.00
2022-09-16T06:36:46.598Z,3.70
2022-09-16T06:39:15.359Z,4.37
2022-09-16T06:41:42.964Z,2.23
2022-09-16T06:44:10.409Z,4.97
2022-09-16T06:46:37.802Z,3.30
2022-09-16T06:49:06.404Z,3.23
2022-09-16T06:51:35.052Z,2.00
2022-09-16T06:54:07.157Z,5.53
2022-09-16T06:56:36.338Z,3.93
2022-09-16T06:59:03.819Z,2.17
2022-09-16T07:01:31.970Z,1.77
2022-09-16T07:04:03.773Z,4.53
2022-09-16T07:07:07.598Z,2.90
2022-09-16T07:09:18.598Z,1.70
2022-09-16T07:11:45.687Z,2.50
2022-09-16T07:14:12.876Z,8.30
2022-09-16T07:16:40.129Z,4.37
2022-09-16T07:19:07.452Z,3.53
2022-09-16T07:21:34.670Z,3.60
2022-09-16T07:24:03.592Z,7.23
2022-09-16T07:26:33.104Z,9.23
2022-09-16T07:29:02.463Z,3.50
2022-09-16T07:31:33.236Z,4.03
2022-09-16T07:34:04.805Z,8.20
2022-09-16T07:36:43.179Z,3.30
2022-09-16T07:39:11.771Z,3.20
2022-09-16T07:41:41.807Z,5.33
2022-09-16T07:44:12.477Z,10.20
2022-09-16T07:46:40.421Z,9.93
2022-09-16T07:49:09.342Z,7.00
2022-09-16T07:51:36.519Z,5.20
2022-09-16T07:54:06.836Z,10.50
2022-09-16T07:56:37.351Z,11.50
2022-09-16T07:59:06.453Z,4.03
2022-09-16T08:01:34.458Z,3.87
2022-09-16T08:04:02.366Z,6.13
2022-09-16T08:06:31.498Z,3.30
2022-09-16T08:09:09.815Z,3.93
2022-09-16T08:11:47.753Z,3.63
2022-09-16T08:14:14.930Z,3.37
2022-09-16T08:16:42.050Z,5.90
2022-09-16T08:19:09.991Z,3.03
2022-09-16T08:21:37.274Z,2.30
2022-09-16T08:24:04.834Z,4.17
2022-09-16T08:26:32.292Z,3.57
2022-09-16T08:29:15.053Z,2.87
2022-09-16T08:31:42.392Z,3.90
2022-09-16T08:34:09.541Z,7.10
2022-09-16T08:36:36.709Z,3.37
2022-09-16T08:39:04.042Z,5.60
2022-09-16T08:41:42.932Z,8.83
2022-09-16T08:44:45.584Z,3.63
2022-09-16T08:47:22.407Z,3.37
2022-09-16T08:49:51.441Z,9.07
2022-09-16T08:52:33.868Z,2.20
2022-09-16T08:55:05.152Z,5.50
2022-09-16T08:57:36.830Z,9.57
2022-09-16T09:00:19.982Z,2.87
2022-09-16T09:02:56.013Z,8.03
2022-09-16T09:05:47.180Z,6.50
2022-09-16T09:08:38.543Z,6.63
2022-09-16T09:11:42.224Z,4.40
2022-09-16T09:14:44.851Z,3.57
2022-09-16T09:17:49.648Z,8.83
2022-09-16T09:20:49.942Z,4.37
2022-09-16T09:23:38.569Z,3.90
2022-09-16T09:26:15.363Z,3.97
2022-09-16T09:28:56.374Z,6.77
2022-09-16T09:31:42.497Z,5.03
2022-09-16T09:34:09.568Z,11.80
2022-09-16T09:37:00.334Z,3.93
2022-09-16T09:39:57.574Z,3.63
2022-09-16T09:42:43.245Z,2.30
2022-09-16T09:45:21.298Z,3.40
2022-09-16T09:47:55.753Z,2.90
2022-09-16T09:51:18.967Z,11.40
2022-09-16T09:54:42.021Z,1.33
2022-09-16T09:58:05.385Z,2.90
2022-09-16T10:01:28.381Z,6.80
2022-09-16T10:04:51.877Z,3.70
2022-09-16T10:08:16.587Z,3.70
2022-09-16T10:11:40.696Z,2.30
2022-09-16T10:15:03.721Z,4.80
2022-09-16T10:18:27.307Z,3.80
2022-09-16T10:21:51.885Z,4.80
2022-09-16T10:25:17.039Z,4.27
2022-09-16T10:28:40.605Z,3.73
2022-09-16T10:32:03.731Z,2.80
2022-09-16T10:35:26.833Z,3.50
2022-09-16T10:38:50.751Z,4.33
2022-09-16T10:42:14.118Z,8.13
2022-09-16T10:45:37.087Z,3.53
2022-09-16T10:49:00.118Z,3.73
2022-09-16T10:52:23.303Z,4.63
2022-09-16T10:55:46.540Z,6.07
2022-09-16T10:59:09.473Z,2.70
2022-09-16T11:02:32.626Z,8.27
2022-09-16T11:05:55.253Z,3.00
2022-09-16T11:09:18.287Z,1.87
2022-09-16T11:12:41.437Z,7.80
2022-09-16T11:16:04.689Z,3.20
2022-09-16T11:19:27.689Z,10.93
2022-09-16T11:22:50.706Z,6.83
2022-09-16T11:26:13.740Z,3.70
2022-09-16T11:29:37.039Z,6.50
2022-09-16T11:33:02.412Z,5.47
2022-09-16T11:36:26.389Z,8.87
2022-09-16T11:39:49.624Z,13.10
2022-09-16T11:43:12.981Z,8.10
2022-09-16T11:46:36.062Z,6.50
2022-09-16T11:49:40.324Z,6.97
2022-09-16T11:52:34.803Z,6.77
2022-09-16T11:55:26.416Z,5.57
2022-09-16T11:58:01.664Z,7.10
2022-09-16T12:00:30.386Z,10.03
2022-09-16T12:03:22.391Z,5.23
2022-09-16T12:06:03.752Z,4.50
2022-09-16T12:08:33.463Z,3.97
2022-09-16T12:11:00.604Z,9.30
2022-09-16T12:13:48.900Z,3.13
2022-09-16T12:16:20.203Z,5.13
2022-09-16T12:18:58.665Z,2.73
2022-09-16T12:21:41.696Z,4.63
2022-09-16T12:24:30.005Z,8.13
2022-09-16T12:27:14.007Z,6.50
2022-09-16T12:30:04.375Z,5.60
2022-09-16T12:32:43.798Z,3.40
2022-09-16T12:35:18.083Z,4.10
2022-09-16T12:37:49.509Z,3.60
2022-09-16T12:40:27.149Z,2.80
2022-09-16T12:43:10.660Z,3.07
2022-09-16T12:46:06.423Z,5.50
2022-09-16T12:48:58.074Z,4.80
2022-09-16T12:51:59.690Z,8.40
2022-09-16T12:55:04.066Z,2.63
2022-09-16T12:57:48.153Z,5.07
2022-09-16T13:00:49.708Z,3.33
2022-09-16T13:03:20.378Z,5.20
2022-09-16T13:05:50.949Z,4.57
2022-09-16T13:08:23.997Z,3.63
2022-09-16T13:11:38.982Z,4.43
2022-09-16T13:13:57.987Z,4.20
2022-09-16T13:16:36.564Z,2.20
2022-09-16T13:19:09.487Z,2.40
2022-09-16T13:21:47.448Z,2.07
2022-09-16T13:24:37.944Z,3.67
2022-09-16T13:27:31.366Z,4.47
2022-09-16T13:30:13.263Z,3.00
2022-09-16T13:32:52.402Z,4.67
2022-09-16T13:35:19.489Z,2.13
2022-09-16T13:37:47.903Z,4.80
2022-09-16T13:40:30.160Z,3.00
2022-09-16T13:43:09.526Z,5.43
2022-09-16T13:45:41.248Z,6.03
2022-09-16T13:48:21.670Z,1.40
2022-09-16T13:50:59.381Z,3.17
2022-09-16T13:53:33.613Z,2.13
2022-09-16T13:56:13.906Z,2.60
2022-09-16T13:58:49.589Z,4.40
2022-09-16T14:01:58.392Z,5.13
2022-09-16T14:04:57.287Z,5.63
2022-09-16T14:07:42.938Z,1.63
2022-09-16T14:10:24.082Z,3.13
2022-09-16T14:13:04.309Z,3.20
2022-09-16T14:15:39.018Z,2.20
2022-09-16T14:18:07.243Z,2.40
2022-09-16T14:20:35.356Z,2.43
2022-09-16T14:23:16.931Z,3.70
2022-09-16T14:25:44.118Z,4.57
2022-09-16T14:28:18.768Z,3.83
2022-09-16T14:30:56.211Z,3.00
2022-09-16T14:33:27.067Z,2.53
2022-09-16T14:35:56.416Z,2.73
2022-09-16T14:38:52.658Z,2.60
2022-09-16T14:41:31.123Z,4.70
2022-09-16T14:44:10.575Z,2.80
2022-09-16T14:47:00.269Z,2.30
2022-09-16T14:49:37.971Z,3.90
2022-09-16T14:52:19.923Z,3.60
2022-09-16T14:54:47.618Z,3.87
2022-09-16T14:57:23.162Z,6.50
2022-09-16T14:59:57.556Z,1.50
2022-09-16T15:02:37.401Z,2.40
2022-09-16T15:05:24.421Z,2.53
2022-09-16T15:08:13.206Z,2.23
2022-09-16T15:10:56.475Z,1.67
2022-09-16T15:13:27.984Z,1.70
2022-09-16T15:16:00.047Z,3.80
2022-09-16T15:18:36.322Z,3.83
2022-09-16T15:21:12.525Z,1.60
2022-09-16T15:23:42.494Z,2.47
2022-09-16T15:26:19.076Z,6.70
2022-09-16T15:28:59.544Z,2.63
2022-09-16T15:31:27.969Z,6.20
2022-09-16T15:33:57.220Z,2.30
2022-09-16T15:36:39.917Z,8.80
2022-09-16T15:39:24.414Z,5.43
2022-09-16T15:42:08.477Z,5.57
2022-09-16T15:44:37.644Z,4.20
2022-09-16T15:47:05.478Z,4.03
2022-09-16T15:49:39.424Z,2.70
2022-09-16T15:52:10.608Z,2.97
2022-09-16T15:54:54.117Z,3.30
2022-09-16T15:57:32.781Z,1.40
2022-09-16T16:00:12.983Z,1.83
2022-09-16T16:03:05.281Z,2.70
2022-09-16T16:05:33.210Z,1.30
2022-09-16T16:08:06.147Z,1.50
2022-09-16T16:10:36.470Z,2.03
2022-09-16T16:13:06.638Z,2.80
2022-09-16T16:15:36.080Z,2.90
2022-09-16T16:18:08.146Z,1.20
2022-09-16T16:20:38.177Z,2.30
2022-09-16T16:23:05.359Z,2.77
2022-09-16T16:25:34.243Z,5.43
2022-09-16T16:28:01.545Z,3.00
2022-09-16T16:30:28.609Z,12.90
2022-09-16T16:32:55.751Z,4.53
2022-09-16T16:35:22.929Z,7.67
2022-09-16T16:37:50.125Z,4.53
2022-09-16T16:40:17.342Z,5.93
2022-09-16T16:42:44.947Z,4.27
2022-09-16T16:45:15.066Z,5.23
2022-09-16T16:47:43.372Z,4.77
2022-09-16T16:50:11.344Z,5.63
2022-09-16T16:52:38.720Z,4.50
2022-09-16T16:55:06.915Z,3.80
2022-09-16T16:57:34.225Z,4.27
2022-09-16T17:00:01.421Z,6.63
2022-09-16T17:02:28.603Z,3.00
2022-09-16T17:04:55.890Z,3.40
2022-09-16T17:07:27.462Z,3.60
2022-09-16T17:09:56.977Z,4.03
2022-09-16T17:12:24.165Z,3.83
2022-09-16T17:14:51.403Z,2.97
2022-09-16T17:17:18.456Z,5.00
2022-09-16T17:19:45.613Z,3.70
2022-09-16T17:22:12.737Z,4.40
2022-09-16T17:24:39.846Z,4.57
2022-09-16T17:27:06.939Z,6.40
2022-09-16T17:29:34.023Z,5.83
2022-09-16T17:32:03.151Z,8.37
2022-09-16T17:34:31.281Z,4.13
2022-09-16T17:36:58.802Z,3.70
2022-09-16T17:39:26.212Z,7.47
2022-09-16T17:41:54.647Z,3.90
2022-09-16T17:44:22.186Z,4.40
2022-09-16T17:46:49.467Z,5.57
2022-09-16T17:49:20.275Z,6.37
2022-09-16T17:51:48.336Z,6.63
2022-09-16T17:54:15.689Z,5.80
2022-09-16T17:56:43.617Z,5.43
2022-09-16T17:59:12.481Z,5.33
2022-09-16T18:01:40.196Z,8.90
2022-09-16T18:04:08.104Z,7.00
2022-09-16T18:06:43.967Z,5.73
2022-09-16T18:09:12.248Z,2.70
2022-09-16T18:11:40.014Z,5.83
2022-09-16T18:14:10.502Z,4.07
2022-09-16T18:16:37.769Z,7.17
2022-09-16T18:19:05.822Z,4.90
2022-09-16T18:21:33.778Z,5.37
2022-09-16T18:24:03.038Z,8.27
2022-09-16T18:26:31.930Z,7.90
2022-09-16T18:29:10.575Z,7.93
2022-09-16T18:31:40.199Z,10.50
2022-09-16T18:34:07.833Z,9.73
2022-09-16T18:36:37.025Z,9.83
2022-09-16T18:39:05.241Z,5.17
2022-09-16T18:41:37.642Z,8.07
2022-09-16T18:44:08.028Z,11.50
2022-09-16T18:46:36.974Z,6.77
2022-09-16T18:49:05.168Z,6.17
2022-09-16T18:51:38.586Z,5.33
2022-09-16T18:54:14.433Z,7.67
2022-09-16T18:56:41.638Z,3.20
2022-09-16T18:59:22.186Z,8.30
2022-09-16T19:01:53.044Z,16.23
2022-09-16T19:04:24.277Z,3.87
2022-09-16T19:06:54.183Z,4.30
2022-09-16T19:09:24.319Z,8.60
2022-09-16T19:11:54.192Z,10.90
2022-09-16T19:14:24.469Z,13.50
2022-09-16T19:16:52.289Z,7.60
2022-09-16T19:19:19.922Z,2.10
2022-09-16T19:21:47.947Z,9.03
2022-09-16T19:24:17.947Z,6.97
2022-09-16T19:26:46.422Z,5.37
2022-09-16T19:29:14.908Z,6.93
2022-09-16T19:31:44.178Z,8.10
2022-09-16T19:34:12.515Z,5.47
2022-09-16T19:36:40.171Z,9.00
2022-09-16T19:39:08.611Z,5.80
2022-09-16T19:41:38.437Z,8.03
2022-09-16T19:44:08.628Z,5.23
2022-09-16T19:46:37.872Z,4.70
2022-09-16T19:49:06.407Z,10.10
2022-09-16T19:51:33.597Z,5.50
2022-09-16T19:54:01.312Z,8.00
2022-09-16T19:56:33.662Z,14.70
2022-09-16T19:59:04.260Z,5.43
2022-09-16T20:01:33.510Z,6.50
2022-09-16T20:04:02.513Z,9.80
2022-09-16T20:06:34.968Z,5.80
2022-09-16T20:09:03.876Z,9.30
2022-09-16T20:11:35.520Z,12.83
2022-09-16T20:14:05.691Z,7.07
2022-09-16T20:16:38.893Z,6.87
2022-09-16T20:19:12.556Z,12.17
2022-09-16T20:21:40.452Z,7.93
2022-09-16T20:24:10.290Z,7.07
2022-09-16T20:26:37.450Z,20.07
2022-09-16T20:29:05.387Z,9.10
2022-09-16T20:31:35.736Z,8.67
2022-09-16T20:34:04.317Z,8.93
2022-09-16T20:36:35.673Z,7.60
2022-09-16T20:39:03.116Z,7.80
2022-09-16T20:41:32.152Z,7.93
2022-09-16T20:44:00.345Z,8.93
2022-09-16T20:46:33.010Z,6.03
2022-09-16T20:49:02.740Z,17.13
2022-09-16T20:51:31.957Z,13.10
2022-09-16T20:54:08.453Z,10.83
2022-09-16T20:56:39.198Z,6.90
2022-09-16T20:59:11.316Z,10.27
2022-09-16T21:01:39.709Z,8.70
2022-09-16T21:04:12.368Z,8.93
2022-09-16T21:06:39.686Z,7.27
2022-09-16T21:09:10.329Z,6.03
2022-09-16T21:11:44.701Z,8.30
2022-09-16T21:14:15.363Z,9.33
2022-09-16T21:16:43.826Z,17.17
2022-09-16T21:19:12.911Z,9.97
2022-09-16T21:21:43.212Z,11.07
2022-09-16T21:24:10.495Z,12.83
2022-09-16T21:26:39.091Z,13.50
2022-09-16T21:29:12.042Z,12.73
2022-09-16T21:31:42.040Z,10.73
2022-09-16T21:34:16.338Z,15.40
2022-09-16T21:36:46.958Z,20.57
2022-09-16T21:39:14.982Z,16.43
2022-09-16T21:41:46.586Z,25.00
2022-09-16T21:44:14.651Z,11.90
2022-09-16T21:46:45.521Z,18.40
2022-09-16T21:49:22.891Z,15.57
2022-09-16T21:51:58.626Z,16.60
2022-09-16T21:54:26.693Z,15.43
2022-09-16T21:56:53.957Z,10.77
2022-09-16T21:59:21.424Z,16.10
2022-09-16T22:01:50.325Z,12.63
2022-09-16T22:04:20.872Z,18.37
2022-09-16T22:06:49.028Z,17.23
2022-09-16T22:09:16.601Z,16.13
2022-09-16T22:11:46.783Z,16.07
2022-09-16T22:14:14.274Z,17.93
2022-09-16T22:16:44.831Z,22.03
2022-09-16T22:19:15.978Z,14.83
2022-09-16T22:21:45.997Z,11.30
2022-09-16T22:24:13.777Z,12.60
2022-09-16T22:26:43.906Z,14.53
2022-09-16T22:29:12.467Z,19.37
2022-09-16T22:31:42.067Z,13.03
2022-09-16T22:34:09.767Z,18.20
2022-09-16T22:36:39.148Z,16.10
2022-09-16T22:39:11.216Z,19.30
2022-09-16T22:41:38.457Z,17.00
2022-09-16T22:44:05.756Z,21.93
2022-09-16T22:46:39.194Z,17.57
2022-09-16T22:49:06.277Z,16.00
2022-09-16T22:51:33.467Z,9.67
2022-09-16T22:54:00.581Z,14.63
2022-09-16T22:56:32.155Z,22.10
2022-09-16T22:59:02.316Z,7.00
2022-09-16T23:01:40.220Z,21.23
2022-09-16T23:04:09.152Z,15.53
2022-09-16T23:06:38.701Z,19.53
2022-09-16T23:09:07.395Z,20.57
2022-09-16T23:11:35.705Z,14.57
2022-09-16T23:14:03.123Z,20.03
2022-09-16T23:16:36.315Z,14.20
2022-09-16T23:19:05.940Z,10.30
2022-09-16T23:21:33.531Z,10.73
2022-09-16T23:24:03.332Z,19.50
2022-09-16T23:26:33.215Z,23.27
2022-09-16T23:29:02.309Z,14.33
2022-09-16T23:31:31.999Z,15.33
2022-09-16T23:33:59.971Z,10.80
2022-09-16T23:36:28.263Z,11.87
2022-09-16T23:38:55.670Z,15.90
2022-09-16T23:41:26.755Z,11.50
2022-09-16T23:43:55.044Z,11.13
2022-09-16T23:46:23.868Z,16.20
2022-09-16T23:48:51.881Z,9.93
2022-09-16T23:51:23.611Z,19.50
2022-09-16T23:53:55.391Z,7.13
2022-09-16T23:56:22.565Z,20.97
2022-09-16T23:58:52.920Z,15.27
